sensor_id;sensor_type;location;lat;lon;timestamp;temperature;humidity
72380;SHT30;60354;47.798;12.472;2023-02-12T00:00:21;1.37;71.04
72380;SHT30;60354;47.798;12.472;2023-02-12T00:02:46;1.44;71.41
72380;SHT30;60354;47.798;12.472;2023-02-12T00:05:12;1.43;71.93
72380;SHT30;60354;47.798;12.472;2023-02-12T00:07:40;1.45;71.78
72380;SHT30;60354;47.798;12.472;2023-02-12T00:10:06;1.47;72.14
72380;SHT30;60354;47.798;12.472;2023-02-12T00:12:32;1.47;72.47
72380;SHT30;60354;47.798;12.472;2023-02-12T00:14:57;1.48;71.82
72380;SHT30;60354;47.798;12.472;2023-02-12T00:17:23;1.50;71.77
72380;SHT30;60354;47.798;12.472;2023-02-12T00:19:48;1.52;72.15
72380;SHT30;60354;47.798;12.472;2023-02-12T00:22:14;1.48;72.91
72380;SHT30;60354;47.798;12.472;2023-02-12T00:24:39;1.41;74.67
72380;SHT30;60354;47.798;12.472;2023-02-12T00:27:04;1.38;74.30
72380;SHT30;60354;47.798;12.472;2023-02-12T00:29:30;1.36;74.02
72380;SHT30;60354;47.798;12.472;2023-02-12T00:31:55;1.41;73.65
72380;SHT30;60354;47.798;12.472;2023-02-12T00:34:21;1.38;73.86
72380;SHT30;60354;47.798;12.472;2023-02-12T00:36:46;1.40;73.55
72380;SHT30;60354;47.798;12.472;2023-02-12T00:39:12;1.44;73.17
72380;SHT30;60354;47.798;12.472;2023-02-12T00:41:37;1.48;72.92
72380;SHT30;60354;47.798;12.472;2023-02-12T00:44:03;1.52;72.46
72380;SHT30;60354;47.798;12.472;2023-02-12T00:46:29;1.54;72.05
72380;SHT30;60354;47.798;12.472;2023-02-12T00:48:54;1.54;71.40
72380;SHT30;60354;47.798;12.472;2023-02-12T00:51:20;1.52;71.60
72380;SHT30;60354;47.798;12.472;2023-02-12T00:53:45;1.51;71.36
72380;SHT30;60354;47.798;12.472;2023-02-12T00:56:11;1.47;71.74
72380;SHT30;60354;47.798;12.472;2023-02-12T00:58:37;1.48;72.03
72380;SHT30;60354;47.798;12.472;2023-02-12T01:01:04;1.52;71.98
72380;SHT30;60354;47.798;12.472;2023-02-12T01:03:30;1.48;72.93
72380;SHT30;60354;47.798;12.472;2023-02-12T01:05:57;1.50;72.87
72380;SHT30;60354;47.798;12.472;2023-02-12T01:08:23;1.57;72.77
72380;SHT30;60354;47.798;12.472;2023-02-12T01:10:58;1.52;73.33
72380;SHT30;60354;47.798;12.472;2023-02-12T01:13:25;1.54;73.00
72380;SHT30;60354;47.798;12.472;2023-02-12T01:18:34;1.51;72.91
72380;SHT30;60354;47.798;12.472;2023-02-12T01:20:59;1.54;72.68
72380;SHT30;60354;47.798;12.472;2023-02-12T01:23:26;1.65;72.66
72380;SHT30;60354;47.798;12.472;2023-02-12T01:25:52;1.64;72.61
72380;SHT30;60354;47.798;12.472;2023-02-12T01:28:18;1.67;71.94
72380;SHT30;60354;47.798;12.472;2023-02-12T01:30:43;1.67;71.80
72380;SHT30;60354;47.798;12.472;2023-02-12T01:33:09;1.69;71.55
72380;SHT30;60354;47.798;12.472;2023-02-12T01:35:36;1.72;71.72
72380;SHT30;60354;47.798;12.472;2023-02-12T01:38:02;1.71;71.73
72380;SHT30;60354;47.798;12.472;2023-02-12T01:40:27;1.78;71.73
72380;SHT30;60354;47.798;12.472;2023-02-12T01:42:53;1.78;71.88
72380;SHT30;60354;47.798;12.472;2023-02-12T01:47:47;1.76;72.30
72380;SHT30;60354;47.798;12.472;2023-02-12T01:50:16;1.78;72.29
72380;SHT30;60354;47.798;12.472;2023-02-12T01:52:47;1.79;72.56
72380;SHT30;60354;47.798;12.472;2023-02-12T01:55:14;1.76;73.08
72380;SHT30;60354;47.798;12.472;2023-02-12T01:57:41;1.71;74.20
72380;SHT30;60354;47.798;12.472;2023-02-12T02:00:12;1.69;74.39
72380;SHT30;60354;47.798;12.472;2023-02-12T02:02:44;1.65;74.57
72380;SHT30;60354;47.798;12.472;2023-02-12T02:05:19;1.62;73.37
72380;SHT30;60354;47.798;12.472;2023-02-12T02:07:47;1.65;73.53
72380;SHT30;60354;47.798;12.472;2023-02-12T02:10:13;1.65;73.61
72380;SHT30;60354;47.798;12.472;2023-02-12T02:12:39;1.69;73.40
72380;SHT30;60354;47.798;12.472;2023-02-12T02:15:25;1.75;72.77
72380;SHT30;60354;47.798;12.472;2023-02-12T02:18:27;1.76;73.21
72380;SHT30;60354;47.798;12.472;2023-02-12T02:21:23;1.75;73.34
72380;SHT30;60354;47.798;12.472;2023-02-12T02:37:52;1.88;72.48
72380;SHT30;60354;47.798;12.472;2023-02-12T02:40:24;1.85;73.45
72380;SHT30;60354;47.798;12.472;2023-02-12T02:42:57;1.86;73.06
72380;SHT30;60354;47.798;12.472;2023-02-12T02:45:58;1.86;73.65
72380;SHT30;60354;47.798;12.472;2023-02-12T02:48:31;1.88;73.68
72380;SHT30;60354;47.798;12.472;2023-02-12T02:51:02;1.88;73.55
72380;SHT30;60354;47.798;12.472;2023-02-12T02:53:31;1.83;72.84
72380;SHT30;60354;47.798;12.472;2023-02-12T02:56:01;1.89;72.71
72380;SHT30;60354;47.798;12.472;2023-02-12T02:58:34;1.89;72.36
72380;SHT30;60354;47.798;12.472;2023-02-12T03:01:12;1.86;72.49
72380;SHT30;60354;47.798;12.472;2023-02-12T03:03:46;1.88;72.48
72380;SHT30;60354;47.798;12.472;2023-02-12T03:06:21;1.89;72.43
72380;SHT30;60354;47.798;12.472;2023-02-12T03:08:51;1.94;73.16
72380;SHT30;60354;47.798;12.472;2023-02-12T03:14:05;1.94;73.59
72380;SHT30;60354;47.798;12.472;2023-02-12T03:16:43;1.94;74.38
72380;SHT30;60354;47.798;12.472;2023-02-12T03:19:28;1.99;73.95
72380;SHT30;60354;47.798;12.472;2023-02-12T03:22:10;1.98;73.94
72380;SHT30;60354;47.798;12.472;2023-02-12T03:27:33;1.91;76.57
72380;SHT30;60354;47.798;12.472;2023-02-12T03:30:02;1.88;75.92
72380;SHT30;60354;47.798;12.472;2023-02-12T03:32:45;1.88;76.41
72380;SHT30;60354;47.798;12.472;2023-02-12T03:37:57;1.91;76.34
72380;SHT30;60354;47.798;12.472;2023-02-12T03:43:06;1.96;76.12
72380;SHT30;60354;47.798;12.472;2023-02-12T03:45:48;1.98;76.04
72380;SHT30;60354;47.798;12.472;2023-02-12T03:48:26;1.98;76.09
72380;SHT30;60354;47.798;12.472;2023-02-12T03:50:56;1.96;75.97
72380;SHT30;60354;47.798;12.472;2023-02-12T03:53:24;1.94;75.74
72380;SHT30;60354;47.798;12.472;2023-02-12T03:55:57;1.96;75.40
72380;SHT30;60354;47.798;12.472;2023-02-12T03:58:27;1.96;75.17
72380;SHT30;60354;47.798;12.472;2023-02-12T04:00:53;1.98;75.09
72380;SHT30;60354;47.798;12.472;2023-02-12T04:03:19;1.98;75.19
72380;SHT30;60354;47.798;12.472;2023-02-12T04:05:45;2.02;75.20
72380;SHT30;60354;47.798;12.472;2023-02-12T04:08:11;2.01;75.53
72380;SHT30;60354;47.798;12.472;2023-02-12T04:16:32;1.86;76.28
72380;SHT30;60354;47.798;12.472;2023-02-12T04:18:59;1.88;76.53
72380;SHT30;60354;47.798;12.472;2023-02-12T04:27:24;1.89;76.15
72380;SHT30;60354;47.798;12.472;2023-02-12T04:29:53;1.83;76.35
72380;SHT30;60354;47.798;12.472;2023-02-12T04:32:34;1.86;76.30
72380;SHT30;60354;47.798;12.472;2023-02-12T04:38:07;1.85;76.15
72380;SHT30;60354;47.798;12.472;2023-02-12T04:40:35;1.86;75.92
72380;SHT30;60354;47.798;12.472;2023-02-12T04:43:00;1.88;75.97
72380;SHT30;60354;47.798;12.472;2023-02-12T04:45:28;1.79;75.94
72380;SHT30;60354;47.798;12.472;2023-02-12T04:47:54;1.83;75.82
72380;SHT30;60354;47.798;12.472;2023-02-12T04:50:21;1.88;75.64
72380;SHT30;60354;47.798;12.472;2023-02-12T04:52:46;1.89;75.16
72380;SHT30;60354;47.798;12.472;2023-02-12T04:55:12;1.92;75.05
72380;SHT30;60354;47.798;12.472;2023-02-12T04:57:37;1.94;75.02
72380;SHT30;60354;47.798;12.472;2023-02-12T05:00:05;1.98;74.66
72380;SHT30;60354;47.798;12.472;2023-02-12T05:02:32;1.96;74.91
72380;SHT30;60354;47.798;12.472;2023-02-12T05:04:58;1.95;74.87
72380;SHT30;60354;47.798;12.472;2023-02-12T05:07:23;2.02;74.96
72380;SHT30;60354;47.798;12.472;2023-02-12T05:09:49;2.06;74.94
72380;SHT30;60354;47.798;12.472;2023-02-12T05:12:14;2.09;74.85
72380;SHT30;60354;47.798;12.472;2023-02-12T05:14:40;2.12;74.75
72380;SHT30;60354;47.798;12.472;2023-02-12T05:17:05;2.13;74.46
72380;SHT30;60354;47.798;12.472;2023-02-12T05:19:31;2.16;74.11
72380;SHT30;60354;47.798;12.472;2023-02-12T05:21:56;2.10;75.17
72380;SHT30;60354;47.798;12.472;2023-02-12T05:24:22;2.07;75.59
72380;SHT30;60354;47.798;12.472;2023-02-12T05:26:48;2.09;75.32
72380;SHT30;60354;47.798;12.472;2023-02-12T05:29:14;2.09;75.16
72380;SHT30;60354;47.798;12.472;2023-02-12T05:31:39;2.10;74.98
72380;SHT30;60354;47.798;12.472;2023-02-12T05:34:06;2.10;74.65
72380;SHT30;60354;47.798;12.472;2023-02-12T05:36:32;2.12;74.67
72380;SHT30;60354;47.798;12.472;2023-02-12T05:38:58;2.10;74.99
72380;SHT30;60354;47.798;12.472;2023-02-12T05:41:27;2.12;74.86
72380;SHT30;60354;47.798;12.472;2023-02-12T05:43:52;2.12;75.05
72380;SHT30;60354;47.798;12.472;2023-02-12T05:46:20;2.12;75.37
72380;SHT30;60354;47.798;12.472;2023-02-12T05:48:46;2.07;76.12
72380;SHT30;60354;47.798;12.472;2023-02-12T05:51:17;2.05;76.18
72380;SHT30;60354;47.798;12.472;2023-02-12T05:53:44;2.09;76.05
72380;SHT30;60354;47.798;12.472;2023-02-12T05:58:35;2.02;75.90
72380;SHT30;60354;47.798;12.472;2023-02-12T06:01:01;2.07;75.66
72380;SHT30;60354;47.798;12.472;2023-02-12T06:03:26;2.07;76.18
72380;SHT30;60354;47.798;12.472;2023-02-12T06:05:52;2.10;76.27
72380;SHT30;60354;47.798;12.472;2023-02-12T06:08:17;2.10;76.18
72380;SHT30;60354;47.798;12.472;2023-02-12T06:10:43;2.12;76.13
72380;SHT30;60354;47.798;12.472;2023-02-12T06:13:09;2.12;75.64
72380;SHT30;60354;47.798;12.472;2023-02-12T06:15:37;2.15;74.27
72380;SHT30;60354;47.798;12.472;2023-02-12T06:18:03;2.10;73.33
72380;SHT30;60354;47.798;12.472;2023-02-12T06:20:28;2.15;73.39
72380;SHT30;60354;47.798;12.472;2023-02-12T06:22:54;2.15;73.29
72380;SHT30;60354;47.798;12.472;2023-02-12T06:25:19;2.16;73.28
72380;SHT30;60354;47.798;12.472;2023-02-12T06:27:45;2.16;73.33
72380;SHT30;60354;47.798;12.472;2023-02-12T06:30:11;2.19;73.23
72380;SHT30;60354;47.798;12.472;2023-02-12T06:32:37;2.20;73.32
72380;SHT30;60354;47.798;12.472;2023-02-12T06:35:03;2.26;73.50
72380;SHT30;60354;47.798;12.472;2023-02-12T06:37:28;2.26;73.21
72380;SHT30;60354;47.798;12.472;2023-02-12T06:39:54;2.29;73.13
72380;SHT30;60354;47.798;12.472;2023-02-12T06:42:19;2.34;72.95
72380;SHT30;60354;47.798;12.472;2023-02-12T06:44:45;2.37;72.83
72380;SHT30;60354;47.798;12.472;2023-02-12T06:47:11;2.43;72.98
72380;SHT30;60354;47.798;12.472;2023-02-12T06:49:36;2.41;73.02
72380;SHT30;60354;47.798;12.472;2023-02-12T06:52:01;2.44;73.37
72380;SHT30;60354;47.798;12.472;2023-02-12T06:54:27;2.47;73.39
72380;SHT30;60354;47.798;12.472;2023-02-12T06:56:52;2.47;73.86
72380;SHT30;60354;47.798;12.472;2023-02-12T06:59:18;2.50;73.98
72380;SHT30;60354;47.798;12.472;2023-02-12T07:01:44;2.48;74.33
72380;SHT30;60354;47.798;12.472;2023-02-12T07:04:09;2.51;74.27
72380;SHT30;60354;47.798;12.472;2023-02-12T07:06:35;2.56;74.34
72380;SHT30;60354;47.798;12.472;2023-02-12T07:09:02;2.56;74.25
72380;SHT30;60354;47.798;12.472;2023-02-12T07:11:33;2.60;74.27
72380;SHT30;60354;47.798;12.472;2023-02-12T07:13:59;2.60;74.38
72380;SHT30;60354;47.798;12.472;2023-02-12T07:16:25;2.64;74.36
72380;SHT30;60354;47.798;12.472;2023-02-12T07:18:50;2.67;73.98
72380;SHT30;60354;47.798;12.472;2023-02-12T07:21:16;2.71;74.38
72380;SHT30;60354;47.798;12.472;2023-02-12T07:23:47;2.73;74.32
72380;SHT30;60354;47.798;12.472;2023-02-12T07:26:13;2.74;74.35
72380;SHT30;60354;47.798;12.472;2023-02-12T07:28:40;2.83;73.86
72380;SHT30;60354;47.798;12.472;2023-02-12T07:31:14;2.83;73.63
72380;SHT30;60354;47.798;12.472;2023-02-12T07:33:40;2.85;73.46
72380;SHT30;60354;47.798;12.472;2023-02-12T07:36:11;2.89;73.48
72380;SHT30;60354;47.798;12.472;2023-02-12T07:38:37;2.94;73.69
72380;SHT30;60354;47.798;12.472;2023-02-12T07:43:32;2.97;73.97
72380;SHT30;60354;47.798;12.472;2023-02-12T07:46:08;3.02;74.10
72380;SHT30;60354;47.798;12.472;2023-02-12T07:48:34;3.05;75.39
72380;SHT30;60354;47.798;12.472;2023-02-12T07:51:08;3.12;75.79
72380;SHT30;60354;47.798;12.472;2023-02-12T07:53:35;3.19;76.19
72380;SHT30;60354;47.798;12.472;2023-02-12T07:56:21;3.25;76.02
72380;SHT30;60354;47.798;12.472;2023-02-12T07:58:48;3.29;75.78
72380;SHT30;60354;47.798;12.472;2023-02-12T08:03:45;3.40;74.74
72380;SHT30;60354;47.798;12.472;2023-02-12T08:06:17;3.47;74.02
72380;SHT30;60354;47.798;12.472;2023-02-12T08:08:43;3.52;72.97
72380;SHT30;60354;47.798;12.472;2023-02-12T08:11:10;3.60;72.33
72380;SHT30;60354;47.798;12.472;2023-02-12T08:13:37;3.69;72.04
72380;SHT30;60354;47.798;12.472;2023-02-12T08:16:07;3.74;71.54
72380;SHT30;60354;47.798;12.472;2023-02-12T08:18:34;3.80;69.97
72380;SHT30;60354;47.798;12.472;2023-02-12T08:21:22;3.88;69.93
72380;SHT30;60354;47.798;12.472;2023-02-12T08:23:47;4.18;68.93
72380;SHT30;60354;47.798;12.472;2023-02-12T08:28:51;4.35;67.66
72380;SHT30;60354;47.798;12.472;2023-02-12T08:31:23;4.28;67.44
72380;SHT30;60354;47.798;12.472;2023-02-12T08:33:50;4.55;66.95
72380;SHT30;60354;47.798;12.472;2023-02-12T08:36:18;4.55;66.93
72380;SHT30;60354;47.798;12.472;2023-02-12T08:38:45;4.62;66.84
72380;SHT30;60354;47.798;12.472;2023-02-12T08:41:21;4.93;66.36
72380;SHT30;60354;47.798;12.472;2023-02-12T08:43:47;5.34;71.10
72380;SHT30;60354;47.798;12.472;2023-02-12T08:48:42;5.68;64.68
72380;SHT30;60354;47.798;12.472;2023-02-12T08:51:19;5.75;63.16
72380;SHT30;60354;47.798;12.472;2023-02-12T08:53:47;5.90;63.18
72380;SHT30;60354;47.798;12.472;2023-02-12T08:56:15;6.03;63.00
72380;SHT30;60354;47.798;12.472;2023-02-12T08:58:41;6.13;62.27
72380;SHT30;60354;47.798;12.472;2023-02-12T09:01:18;6.14;61.68
72380;SHT30;60354;47.798;12.472;2023-02-12T09:03:45;6.36;62.06
72380;SHT30;60354;47.798;12.472;2023-02-12T09:06:11;6.26;60.99
72380;SHT30;60354;47.798;12.472;2023-02-12T09:08:37;6.26;61.38
72380;SHT30;60354;47.798;12.472;2023-02-12T09:11:08;6.37;61.19
72380;SHT30;60354;47.798;12.472;2023-02-12T09:13:35;6.57;61.58
72380;SHT30;60354;47.798;12.472;2023-02-12T09:16:02;6.71;61.09
72380;SHT30;60354;47.798;12.472;2023-02-12T09:18:28;6.88;61.16
72380;SHT30;60354;47.798;12.472;2023-02-12T09:21:00;6.98;60.41
72380;SHT30;60354;47.798;12.472;2023-02-12T09:23:25;6.96;60.12
72380;SHT30;60354;47.798;12.472;2023-02-12T09:25:51;7.03;60.55
72380;SHT30;60354;47.798;12.472;2023-02-12T09:28:16;7.06;60.25
72380;SHT30;60354;47.798;12.472;2023-02-12T09:30:42;7.19;60.47
72380;SHT30;60354;47.798;12.472;2023-02-12T09:33:09;7.32;61.23
72380;SHT30;60354;47.798;12.472;2023-02-12T09:35:35;7.18;61.09
72380;SHT30;60354;47.798;12.472;2023-02-12T09:38:02;7.36;60.67
72380;SHT30;60354;47.798;12.472;2023-02-12T09:40:35;7.53;60.96
72380;SHT30;60354;47.798;12.472;2023-02-12T09:45:38;7.27;60.65
72380;SHT30;60354;47.798;12.472;2023-02-12T09:53:01;7.56;61.73
72380;SHT30;60354;47.798;12.472;2023-02-12T09:55:32;7.67;61.29
72380;SHT30;60354;47.798;12.472;2023-02-12T09:58:09;7.83;61.67
72380;SHT30;60354;47.798;12.472;2023-02-12T10:00:36;7.77;60.85
72380;SHT30;60354;47.798;12.472;2023-02-12T10:03:04;7.87;61.20
72380;SHT30;60354;47.798;12.472;2023-02-12T10:05:52;8.01;61.80
72380;SHT30;60354;47.798;12.472;2023-02-12T10:22:08;8.15;63.67
72380;SHT30;60354;47.798;12.472;2023-02-12T10:27:41;8.39;63.41
72380;SHT30;60354;47.798;12.472;2023-02-12T10:33:38;8.25;65.52
72380;SHT30;60354;47.798;12.472;2023-02-12T10:38:39;8.02;67.49
72380;SHT30;60354;47.798;12.472;2023-02-12T10:41:09;8.15;67.71
72380;SHT30;60354;47.798;12.472;2023-02-12T10:43:36;8.16;67.02
72380;SHT30;60354;47.798;12.472;2023-02-12T10:46:02;8.33;67.08
72380;SHT30;60354;47.798;12.472;2023-02-12T10:48:34;8.25;67.88
72380;SHT30;60354;47.798;12.472;2023-02-12T10:58:51;7.85;70.08
72380;SHT30;60354;47.798;12.472;2023-02-12T11:01:35;7.99;70.22
72380;SHT30;60354;47.798;12.472;2023-02-12T11:04:31;7.85;70.31
72380;SHT30;60354;47.798;12.472;2023-02-12T11:07:32;7.88;70.57
72380;SHT30;60354;47.798;12.472;2023-02-12T11:11:36;7.95;70.48
72380;SHT30;60354;47.798;12.472;2023-02-12T11:18:00;7.97;70.11
72380;SHT30;60354;47.798;12.472;2023-02-12T11:23:43;7.91;70.63
72380;SHT30;60354;47.798;12.472;2023-02-12T11:26:37;7.87;70.78
72380;SHT30;60354;47.798;12.472;2023-02-12T11:29:20;7.80;70.37
72380;SHT30;60354;47.798;12.472;2023-02-12T11:32:00;7.75;70.87
72380;SHT30;60354;47.798;12.472;2023-02-12T11:34:29;7.88;70.57
72380;SHT30;60354;47.798;12.472;2023-02-12T11:36:57;7.97;71.02
72380;SHT30;60354;47.798;12.472;2023-02-12T11:41:55;7.90;71.28
72380;SHT30;60354;47.798;12.472;2023-02-12T11:44:25;7.95;71.58
72380;SHT30;60354;47.798;12.472;2023-02-12T11:46:57;7.98;71.36
72380;SHT30;60354;47.798;12.472;2023-02-12T11:49:32;7.94;70.68
72380;SHT30;60354;47.798;12.472;2023-02-12T11:52:00;8.01;71.14
72380;SHT30;60354;47.798;12.472;2023-02-12T11:54:29;8.08;70.99
72380;SHT30;60354;47.798;12.472;2023-02-12T11:56:58;8.01;70.14
72380;SHT30;60354;47.798;12.472;2023-02-12T11:59:36;8.02;70.33
72380;SHT30;60354;47.798;12.472;2023-02-12T12:02:16;8.11;69.66
72380;SHT30;60354;47.798;12.472;2023-02-12T12:04:45;8.15;69.98
72380;SHT30;60354;47.798;12.472;2023-02-12T12:07:23;8.20;69.58
72380;SHT30;60354;47.798;12.472;2023-02-12T12:12:40;8.22;69.89
72380;SHT30;60354;47.798;12.472;2023-02-12T12:15:25;8.20;69.65
72380;SHT30;60354;47.798;12.472;2023-02-12T12:23:58;8.16;71.21
72380;SHT30;60354;47.798;12.472;2023-02-12T12:26:33;8.26;70.50
72380;SHT30;60354;47.798;12.472;2023-02-12T12:31:49;8.22;71.07
72380;SHT30;60354;47.798;12.472;2023-02-12T12:34:20;8.21;71.05
72380;SHT30;60354;47.798;12.472;2023-02-12T12:45:53;8.09;71.33
72380;SHT30;60354;47.798;12.472;2023-02-12T12:54:01;8.41;70.35
72380;SHT30;60354;47.798;12.472;2023-02-12T12:56:46;8.49;70.62
72380;SHT30;60354;47.798;12.472;2023-02-12T13:02:31;8.55;69.38
72380;SHT30;60354;47.798;12.472;2023-02-12T13:08:32;8.59;69.37
72380;SHT30;60354;47.798;12.472;2023-02-12T13:13:41;8.24;69.94
72380;SHT30;60354;47.798;12.472;2023-02-12T13:16:39;8.33;69.49
72380;SHT30;60354;47.798;12.472;2023-02-12T13:22:10;8.33;69.84
72380;SHT30;60354;47.798;12.472;2023-02-12T13:29:40;8.41;69.54
72380;SHT30;60354;47.798;12.472;2023-02-12T13:32:26;8.39;69.59
72380;SHT30;60354;47.798;12.472;2023-02-12T13:34:53;8.50;70.08
72380;SHT30;60354;47.798;12.472;2023-02-12T13:39:57;8.38;70.43
72380;SHT30;60354;47.798;12.472;2023-02-12T13:50:45;8.38;70.84
72380;SHT30;60354;47.798;12.472;2023-02-12T13:59:58;8.06;72.32
72380;SHT30;60354;47.798;12.472;2023-02-12T14:14:09;8.12;72.50
72380;SHT30;60354;47.798;12.472;2023-02-12T14:20:26;8.08;72.80
72380;SHT30;60354;47.798;12.472;2023-02-12T14:23:19;7.98;73.08
72380;SHT30;60354;47.798;12.472;2023-02-12T14:29:17;7.94;73.83
72380;SHT30;60354;47.798;12.472;2023-02-12T14:31:45;7.87;73.88
72380;SHT30;60354;47.798;12.472;2023-02-12T14:36:46;7.83;73.95
72380;SHT30;60354;47.798;12.472;2023-02-12T14:41:49;7.75;74.27
72380;SHT30;60354;47.798;12.472;2023-02-12T14:44:56;7.70;74.47
72380;SHT30;60354;47.798;12.472;2023-02-12T14:47:59;7.71;74.59
72380;SHT30;60354;47.798;12.472;2023-02-12T14:50:51;7.70;74.40
72380;SHT30;60354;47.798;12.472;2023-02-12T14:53:57;7.64;74.54
72380;SHT30;60354;47.798;12.472;2023-02-12T15:02:34;7.85;73.92
72380;SHT30;60354;47.798;12.472;2023-02-12T15:05:04;7.84;73.93
72380;SHT30;60354;47.798;12.472;2023-02-12T15:07:40;7.85;73.56
72380;SHT30;60354;47.798;12.472;2023-02-12T15:10:21;7.87;73.64
72380;SHT30;60354;47.798;12.472;2023-02-12T15:13:05;7.77;74.18
72380;SHT30;60354;47.798;12.472;2023-02-12T15:15:40;7.67;74.52
72380;SHT30;60354;47.798;12.472;2023-02-12T15:18:29;7.53;74.89
72380;SHT30;60354;47.798;12.472;2023-02-12T15:21:21;7.54;74.92
72380;SHT30;60354;47.798;12.472;2023-02-12T15:24:09;7.39;75.13
72380;SHT30;60354;47.798;12.472;2023-02-12T15:29:12;7.26;75.65
72380;SHT30;60354;47.798;12.472;2023-02-12T15:31:40;7.18;75.90
72380;SHT30;60354;47.798;12.472;2023-02-12T15:34:06;7.16;76.12
72380;SHT30;60354;47.798;12.472;2023-02-12T15:36:32;7.09;76.37
72380;SHT30;60354;47.798;12.472;2023-02-12T15:39:07;7.03;76.49
72380;SHT30;60354;47.798;12.472;2023-02-12T15:41:38;6.98;76.68
72380;SHT30;60354;47.798;12.472;2023-02-12T15:49:34;6.85;77.13
72380;SHT30;60354;47.798;12.472;2023-02-12T15:52:03;6.80;77.47
72380;SHT30;60354;47.798;12.472;2023-02-12T15:54:34;6.75;77.49
72380;SHT30;60354;47.798;12.472;2023-02-12T15:57:00;6.68;77.68
72380;SHT30;60354;47.798;12.472;2023-02-12T15:59:26;6.61;77.74
72380;SHT30;60354;47.798;12.472;2023-02-12T16:01:58;6.53;77.94
72380;SHT30;60354;47.798;12.472;2023-02-12T16:04:30;6.47;78.13
72380;SHT30;60354;47.798;12.472;2023-02-12T16:06:58;6.43;78.27
72380;SHT30;60354;47.798;12.472;2023-02-12T16:09:33;6.38;78.63
72380;SHT30;60354;47.798;12.472;2023-02-12T16:12:05;6.34;78.75
72380;SHT30;60354;47.798;12.472;2023-02-12T16:14:46;6.30;78.93
72380;SHT30;60354;47.798;12.472;2023-02-12T16:19:58;6.31;78.76
72380;SHT30;60354;47.798;12.472;2023-02-12T16:22:31;6.30;78.75
72380;SHT30;60354;47.798;12.472;2023-02-12T16:24:58;6.24;78.70
72380;SHT30;60354;47.798;12.472;2023-02-12T16:27:31;6.23;78.57
72380;SHT30;60354;47.798;12.472;2023-02-12T16:33:04;6.09;78.86
72380;SHT30;60354;47.798;12.472;2023-02-12T16:35:31;6.07;78.68
72380;SHT30;60354;47.798;12.472;2023-02-12T16:37:59;6.06;78.85
72380;SHT30;60354;47.798;12.472;2023-02-12T16:40:31;6.13;77.30
72380;SHT30;60354;47.798;12.472;2023-02-12T16:43:03;6.05;78.52
72380;SHT30;60354;47.798;12.472;2023-02-12T16:45:37;5.96;78.83
72380;SHT30;60354;47.798;12.472;2023-02-12T16:48:20;5.90;78.97
72380;SHT30;60354;47.798;12.472;2023-02-12T16:50:51;5.82;79.18
72380;SHT30;60354;47.798;12.472;2023-02-12T16:55:54;5.69;79.68
72380;SHT30;60354;47.798;12.472;2023-02-12T16:58:20;5.65;80.09
72380;SHT30;60354;47.798;12.472;2023-02-12T17:00:46;5.59;80.19
72380;SHT30;60354;47.798;12.472;2023-02-12T17:03:13;5.61;80.38
72380;SHT30;60354;47.798;12.472;2023-02-12T17:05:38;5.55;80.57
72380;SHT30;60354;47.798;12.472;2023-02-12T17:08:25;5.54;80.97
72380;SHT30;60354;47.798;12.472;2023-02-12T17:10:51;5.50;81.30
72380;SHT30;60354;47.798;12.472;2023-02-12T17:13:17;5.44;81.43
72380;SHT30;60354;47.798;12.472;2023-02-12T17:15:52;5.41;81.54
72380;SHT30;60354;47.798;12.472;2023-02-12T17:18:18;5.35;81.62
72380;SHT30;60354;47.798;12.472;2023-02-12T17:20:48;5.31;81.81
72380;SHT30;60354;47.798;12.472;2023-02-12T17:23:15;5.28;82.11
72380;SHT30;60354;47.798;12.472;2023-02-12T17:25:41;5.21;82.52
72380;SHT30;60354;47.798;12.472;2023-02-12T17:28:06;5.16;83.07
72380;SHT30;60354;47.798;12.472;2023-02-12T17:30:33;5.11;83.24
72380;SHT30;60354;47.798;12.472;2023-02-12T17:32:59;5.03;83.99
72380;SHT30;60354;47.798;12.472;2023-02-12T17:35:24;4.99;84.14
72380;SHT30;60354;47.798;12.472;2023-02-12T17:37:50;4.91;84.39
72380;SHT30;60354;47.798;12.472;2023-02-12T17:40:16;4.90;84.28
72380;SHT30;60354;47.798;12.472;2023-02-12T17:42:42;4.89;83.45
72380;SHT30;60354;47.798;12.472;2023-02-12T17:45:10;4.87;82.86
72380;SHT30;60354;47.798;12.472;2023-02-12T17:47:36;4.83;82.04
72380;SHT30;60354;47.798;12.472;2023-02-12T17:50:12;4.70;82.92
72380;SHT30;60354;47.798;12.472;2023-02-12T17:52:38;4.53;82.69
72380;SHT30;60354;47.798;12.472;2023-02-12T17:55:08;4.41;83.25
72380;SHT30;60354;47.798;12.472;2023-02-12T17:57:35;4.25;84.03
72380;SHT30;60354;47.798;12.472;2023-02-12T18:00:01;4.17;85.70
72380;SHT30;60354;47.798;12.472;2023-02-12T18:02:36;4.14;85.50
72380;SHT30;60354;47.798;12.472;2023-02-12T18:05:01;4.11;85.74
72380;SHT30;60354;47.798;12.472;2023-02-12T18:07:27;4.12;85.33
72380;SHT30;60354;47.798;12.472;2023-02-12T18:09:52;4.18;85.16
72380;SHT30;60354;47.798;12.472;2023-02-12T18:12:18;4.24;84.61
72380;SHT30;60354;47.798;12.472;2023-02-12T18:14:43;4.28;84.30
72380;SHT30;60354;47.798;12.472;2023-02-12T18:17:09;4.24;85.31
72380;SHT30;60354;47.798;12.472;2023-02-12T18:19:34;4.34;83.92
72380;SHT30;60354;47.798;12.472;2023-02-12T18:22:00;4.32;84.80
72380;SHT30;60354;47.798;12.472;2023-02-12T18:24:26;4.29;84.56
72380;SHT30;60354;47.798;12.472;2023-02-12T18:26:51;4.37;84.09
72380;SHT30;60354;47.798;12.472;2023-02-12T18:29:17;4.38;83.59
72380;SHT30;60354;47.798;12.472;2023-02-12T18:31:42;4.28;82.33
72380;SHT30;60354;47.798;12.472;2023-02-12T18:34:08;4.22;82.63
72380;SHT30;60354;47.798;12.472;2023-02-12T18:36:33;4.10;82.15
72380;SHT30;60354;47.798;12.472;2023-02-12T18:38:59;4.05;82.60
72380;SHT30;60354;47.798;12.472;2023-02-12T18:41:30;4.02;82.03
72380;SHT30;60354;47.798;12.472;2023-02-12T18:43:56;3.93;81.88
72380;SHT30;60354;47.798;12.472;2023-02-12T18:46:26;3.88;81.73
72380;SHT30;60354;47.798;12.472;2023-02-12T18:48:52;3.83;82.26
72380;SHT30;60354;47.798;12.472;2023-02-12T18:51:20;3.88;81.70
72380;SHT30;60354;47.798;12.472;2023-02-12T18:53:47;3.88;81.81
72380;SHT30;60354;47.798;12.472;2023-02-12T18:56:13;3.87;80.91
72380;SHT30;60354;47.798;12.472;2023-02-12T18:58:38;3.76;81.64
72380;SHT30;60354;47.798;12.472;2023-02-12T19:01:15;3.70;81.26
72380;SHT30;60354;47.798;12.472;2023-02-12T19:03:41;3.74;80.10
72380;SHT30;60354;47.798;12.472;2023-02-12T19:06:06;3.73;80.65
72380;SHT30;60354;47.798;12.472;2023-02-12T19:08:32;3.69;80.83
72380;SHT30;60354;47.798;12.472;2023-02-12T19:10:57;3.67;80.64
72380;SHT30;60354;47.798;12.472;2023-02-12T19:13:23;3.66;80.71
72380;SHT30;60354;47.798;12.472;2023-02-12T19:15:49;3.49;81.69
72380;SHT30;60354;47.798;12.472;2023-02-12T19:18:15;3.12;82.11
72380;SHT30;60354;47.798;12.472;2023-02-12T19:20:41;3.11;82.06